sensor_id;sensor_type;location;lat;lon;timestamp;pressure;altitude;pressure_sealevel;temperature;humidity
18821;BME280;9539;59.332;18.034;2023-10-09T00:02:16;101262.22;;;14.28;46.65
18821;BME280;9539;59.332;18.034;2023-10-09T00:04:39;101265.22;;;14.24;46.70
18821;BME280;9539;59.332;18.034;2023-10-09T00:07:03;101262.50;;;14.38;46.45
18821;BME280;9539;59.332;18.034;2023-10-09T00:09:29;101264.63;;;14.46;46.93
18821;BME280;9539;59.332;18.034;2023-10-09T00:11:53;101260.09;;;13.54;48.15
18821;BME280;9539;59.332;18.034;2023-10-09T00:14:17;101260.38;;;13.36;48.97
18821;BME280;9539;59.332;18.034;2023-10-09T00:16:39;101265.03;;;14.00;48.44
18821;BME280;9539;59.332;18.034;2023-10-09T00:19:07;101252.75;;;15.00;46.32
18821;BME280;9539;59.332;18.034;2023-10-09T00:21:37;101253.19;;;15.07;46.10
18821;BME280;9539;59.332;18.034;2023-10-09T00:23:59;101254.50;;;14.63;47.30
18821;BME280;9539;59.332;18.034;2023-10-09T00:26:27;101244.31;;;14.94;46.99
18821;BME280;9539;59.332;18.034;2023-10-09T00:28:52;101247.53;;;14.86;47.06
18821;BME280;9539;59.332;18.034;2023-10-09T00:31:14;101236.09;;;14.59;47.97
18821;BME280;9539;59.332;18.034;2023-10-09T00:33:47;101244.19;;;14.32;49.29
18821;BME280;9539;59.332;18.034;2023-10-09T00:36:09;101240.28;;;14.63;48.45
18821;BME280;9539;59.332;18.034;2023-10-09T00:38:35;101240.19;;;14.52;48.87
18821;BME280;9539;59.332;18.034;2023-10-09T00:40:59;101240.44;;;14.34;49.96
18821;BME280;9539;59.332;18.034;2023-10-09T00:43:32;101238.06;;;14.57;49.61
18821;BME280;9539;59.332;18.034;2023-10-09T00:45:57;101231.41;;;14.62;49.24
18821;BME280;9539;59.332;18.034;2023-10-09T00:48:20;101226.19;;;14.48;50.22
18821;BME280;9539;59.332;18.034;2023-10-09T00:50:51;101228.00;;;13.69;52.18
18821;BME280;9539;59.332;18.034;2023-10-09T00:53:15;101219.59;;;14.14;52.00
18821;BME280;9539;59.332;18.034;2023-10-09T00:55:39;101224.03;;;13.61;54.01
18821;BME280;9539;59.332;18.034;2023-10-09T00:58:06;101205.97;;;14.31;52.01
18821;BME280;9539;59.332;18.034;2023-10-09T01:00:34;101208.59;;;13.93;53.87
18821;BME280;9539;59.332;18.034;2023-10-09T01:03:06;101201.34;;;14.21;53.73
18821;BME280;9539;59.332;18.034;2023-10-09T01:05:39;101198.75;;;14.07;53.85
18821;BME280;9539;59.332;18.034;2023-10-09T01:08:12;101196.03;;;14.46;53.25
18821;BME280;9539;59.332;18.034;2023-10-09T01:10:45;101187.81;;;14.24;53.92
18821;BME280;9539;59.332;18.034;2023-10-09T01:13:12;101191.13;;;14.40;53.64
18821;BME280;9539;59.332;18.034;2023-10-09T01:15:36;101191.53;;;14.34;53.86
18821;BME280;9539;59.332;18.034;2023-10-09T01:18:04;101190.44;;;13.98;54.91
18821;BME280;9539;59.332;18.034;2023-10-09T01:20:28;101183.94;;;14.15;54.93
18821;BME280;9539;59.332;18.034;2023-10-09T01:22:51;101182.50;;;13.84;55.27
18821;BME280;9539;59.332;18.034;2023-10-09T01:25:15;101188.13;;;14.32;54.71
18821;BME280;9539;59.332;18.034;2023-10-09T01:27:37;101176.22;;;14.37;53.58
18821;BME280;9539;59.332;18.034;2023-10-09T01:30:00;101179.19;;;14.58;52.29
18821;BME280;9539;59.332;18.034;2023-10-09T01:32:23;101174.06;;;14.43;53.00
18821;BME280;9539;59.332;18.034;2023-10-09T01:34:47;101164.63;;;14.24;53.63
18821;BME280;9539;59.332;18.034;2023-10-09T01:37:11;101164.91;;;13.94;53.77
18821;BME280;9539;59.332;18.034;2023-10-09T01:39:39;101172.56;;;14.51;52.92
18821;BME280;9539;59.332;18.034;2023-10-09T01:42:04;101169.28;;;13.83;55.04
18821;BME280;9539;59.332;18.034;2023-10-09T01:44:27;101173.13;;;13.25;56.73
18821;BME280;9539;59.332;18.034;2023-10-09T01:46:55;101168.03;;;14.26;54.10
18821;BME280;9539;59.332;18.034;2023-10-09T01:49:18;101163.00;;;14.09;54.48
18821;BME280;9539;59.332;18.034;2023-10-09T01:51:42;101172.56;;;14.38;53.38
18821;BME280;9539;59.332;18.034;2023-10-09T01:54:04;101164.31;;;14.67;52.04
18821;BME280;9539;59.332;18.034;2023-10-09T01:56:26;101168.03;;;14.26;53.58
18821;BME280;9539;59.332;18.034;2023-10-09T01:58:49;101159.16;;;14.13;53.36
18821;BME280;9539;59.332;18.034;2023-10-09T02:01:11;101152.19;;;14.37;53.95
18821;BME280;9539;59.332;18.034;2023-10-09T02:03:34;101148.53;;;13.61;56.29
18821;BME280;9539;59.332;18.034;2023-10-09T02:05:58;101153.13;;;13.32;58.51
18821;BME280;9539;59.332;18.034;2023-10-09T02:08:20;101147.53;;;13.49;58.69
18821;BME280;9539;59.332;18.034;2023-10-09T02:10:47;101143.25;;;13.86;57.28
18821;BME280;9539;59.332;18.034;2023-10-09T02:13:09;101145.72;;;14.27;56.13
18821;BME280;9539;59.332;18.034;2023-10-09T02:15:33;101140.09;;;14.32;55.03
18821;BME280;9539;59.332;18.034;2023-10-09T02:18:14;101135.38;;;14.10;55.77
18821;BME280;9539;59.332;18.034;2023-10-09T02:20:47;101132.81;;;14.09;55.68
18821;BME280;9539;59.332;18.034;2023-10-09T02:23:16;101133.88;;;14.06;55.81
18821;BME280;9539;59.332;18.034;2023-10-09T02:25:41;101125.31;;;13.88;56.65
18821;BME280;9539;59.332;18.034;2023-10-09T02:28:04;101138.78;;;13.87;55.62
18821;BME280;9539;59.332;18.034;2023-10-09T02:30:29;101131.00;;;14.47;54.24
18821;BME280;9539;59.332;18.034;2023-10-09T02:32:56;101131.31;;;14.30;54.55
18821;BME280;9539;59.332;18.034;2023-10-09T02:35:27;101128.03;;;13.61;57.51
18821;BME280;9539;59.332;18.034;2023-10-09T02:37:59;101126.59;;;13.95;56.88
18821;BME280;9539;59.332;18.034;2023-10-09T02:40:21;101123.59;;;14.00;56.73
18821;BME280;9539;59.332;18.034;2023-10-09T02:42:48;101124.47;;;14.13;55.95
18821;BME280;9539;59.332;18.034;2023-10-09T02:45:10;101125.75;;;13.95;56.92
18821;BME280;9539;59.332;18.034;2023-10-09T02:47:36;101127.03;;;13.89;56.75
18821;BME280;9539;59.332;18.034;2023-10-09T02:50:01;101120.94;;;13.87;56.81
18821;BME280;9539;59.332;18.034;2023-10-09T02:52:26;101117.13;;;13.91;55.77
18821;BME280;9539;59.332;18.034;2023-10-09T02:54:56;101113.25;;;13.95;56.22
18821;BME280;9539;59.332;18.034;2023-10-09T02:57:20;101122.16;;;13.56;57.90
18821;BME280;9539;59.332;18.034;2023-10-09T02:59:44;101117.25;;;13.50;58.32
18821;BME280;9539;59.332;18.034;2023-10-09T03:02:06;101112.41;;;13.82;57.43
18821;BME280;9539;59.332;18.034;2023-10-09T03:04:28;101120.91;;;13.62;58.07
18821;BME280;9539;59.332;18.034;2023-10-09T03:06:52;101124.03;;;13.42;58.87
18821;BME280;9539;59.332;18.034;2023-10-09T03:09:17;101121.50;;;13.40;59.61
18821;BME280;9539;59.332;18.034;2023-10-09T03:11:48;101114.66;;;13.88;57.94
18821;BME280;9539;59.332;18.034;2023-10-09T03:14:13;101116.72;;;13.18;59.70
18821;BME280;9539;59.332;18.034;2023-10-09T03:16:36;101104.81;;;13.64;59.52
18821;BME280;9539;59.332;18.034;2023-10-09T03:18:58;101114.00;;;13.72;59.93
18821;BME280;9539;59.332;18.034;2023-10-09T03:21:20;101112.72;;;13.11;61.10
18821;BME280;9539;59.332;18.034;2023-10-09T03:23:44;101101.72;;;13.70;59.86
18821;BME280;9539;59.332;18.034;2023-10-09T03:26:09;101110.34;;;13.60;60.39
18821;BME280;9539;59.332;18.034;2023-10-09T03:28:31;101095.91;;;13.50;61.11
18821;BME280;9539;59.332;18.034;2023-10-09T03:30:54;101096.56;;;13.41;61.18
18821;BME280;9539;59.332;18.034;2023-10-09T03:33:17;101094.81;;;13.28;62.63
18821;BME280;9539;59.332;18.034;2023-10-09T03:35:39;101096.44;;;13.55;60.24
18821;BME280;9539;59.332;18.034;2023-10-09T03:38:01;101099.03;;;13.70;61.10
18821;BME280;9539;59.332;18.034;2023-10-09T03:40:33;101096.59;;;13.54;59.97
18821;BME280;9539;59.332;18.034;2023-10-09T03:42:59;101103.16;;;13.48;61.10
18821;BME280;9539;59.332;18.034;2023-10-09T03:45:21;101099.44;;;13.51;61.27
18821;BME280;9539;59.332;18.034;2023-10-09T03:47:47;101101.00;;;13.93;60.35
18821;BME280;9539;59.332;18.034;2023-10-09T03:50:09;101097.78;;;14.00;59.65
18821;BME280;9539;59.332;18.034;2023-10-09T03:52:44;101096.31;;;13.32;61.21
18821;BME280;9539;59.332;18.034;2023-10-09T03:55:06;101086.47;;;13.72;60.43
18821;BME280;9539;59.332;18.034;2023-10-09T03:57:34;101079.44;;;13.96;59.07
18821;BME280;9539;59.332;18.034;2023-10-09T03:59:56;101080.09;;;12.81;63.30
18821;BME280;9539;59.332;18.034;2023-10-09T04:02:17;101085.66;;;12.91;64.78
18821;BME280;9539;59.332;18.034;2023-10-09T04:04:38;101081.44;;;13.54;62.05
18821;BME280;9539;59.332;18.034;2023-10-09T04:07:06;101071.22;;;13.61;61.86
18821;BME280;9539;59.332;18.034;2023-10-09T04:09:28;101074.00;;;13.85;60.54
18821;BME280;9539;59.332;18.034;2023-10-09T04:11:56;101074.09;;;13.83;60.23
18821;BME280;9539;59.332;18.034;2023-10-09T04:14:41;101072.28;;;13.84;59.85
18821;BME280;9539;59.332;18.034;2023-10-09T04:17:10;101068.22;;;13.66;60.00
18821;BME280;9539;59.332;18.034;2023-10-09T04:19:53;101064.38;;;13.70;59.71
18821;BME280;9539;59.332;18.034;2023-10-09T04:22:28;101070.94;;;13.39;61.64
18821;BME280;9539;59.332;18.034;2023-10-09T04:24:59;101069.91;;;13.54;59.62
18821;BME280;9539;59.332;18.034;2023-10-09T04:27:21;101062.97;;;13.51;60.90
18821;BME280;9539;59.332;18.034;2023-10-09T04:29:48;101056.84;;;13.37;59.81
18821;BME280;9539;59.332;18.034;2023-10-09T04:32:10;101065.94;;;13.34;61.80
18821;BME280;9539;59.332;18.034;2023-10-09T04:34:36;101057.91;;;13.22;61.55
18821;BME280;9539;59.332;18.034;2023-10-09T04:36:58;101062.50;;;13.32;60.24
18821;BME280;9539;59.332;18.034;2023-10-09T04:39:21;101065.72;;;13.37;59.69
18821;BME280;9539;59.332;18.034;2023-10-09T04:42:07;101057.16;;;13.19;60.05
18821;BME280;9539;59.332;18.034;2023-10-09T04:44:47;101051.75;;;13.07;60.74
18821;BME280;9539;59.332;18.034;2023-10-09T04:47:40;101063.22;;;12.95;60.03
18821;BME280;9539;59.332;18.034;2023-10-09T04:50:10;101056.47;;;13.55;58.96
18821;BME280;9539;59.332;18.034;2023-10-09T04:52:35;101059.47;;;13.64;59.05
18821;BME280;9539;59.332;18.034;2023-10-09T04:55:15;101053.50;;;13.47;60.21
18821;BME280;9539;59.332;18.034;2023-10-09T04:57:40;101055.06;;;13.50;59.31
18821;BME280;9539;59.332;18.034;2023-10-09T05:00:22;101053.44;;;13.22;59.83
18821;BME280;9539;59.332;18.034;2023-10-09T05:03:04;101050.81;;;13.47;59.78
18821;BME280;9539;59.332;18.034;2023-10-09T05:05:31;101048.38;;;13.95;58.29
18821;BME280;9539;59.332;18.034;2023-10-09T05:08:06;101052.44;;;14.00;57.71
18821;BME280;9539;59.332;18.034;2023-10-09T05:10:39;101049.78;;;12.69;62.63
18821;BME280;9539;59.332;18.034;2023-10-09T05:13:14;101042.19;;;13.17;62.02
18821;BME280;9539;59.332;18.034;2023-10-09T05:15:49;101032.41;;;13.17;61.87
18821;BME280;9539;59.332;18.034;2023-10-09T05:18:12;101040.31;;;13.19;62.61
18821;BME280;9539;59.332;18.034;2023-10-09T05:20:36;101034.25;;;13.42;62.40
18821;BME280;9539;59.332;18.034;2023-10-09T05:23:15;101031.84;;;13.52;61.12
18821;BME280;9539;59.332;18.034;2023-10-09T05:25:46;101032.84;;;13.24;64.06
18821;BME280;9539;59.332;18.034;2023-10-09T05:28:19;101023.56;;;13.17;64.04
18821;BME280;9539;59.332;18.034;2023-10-09T05:30:52;101033.38;;;13.29;64.05
18821;BME280;9539;59.332;18.034;2023-10-09T05:33:26;101034.50;;;13.39;63.80
18821;BME280;9539;59.332;18.034;2023-10-09T05:35:57;101032.22;;;13.20;64.56
18821;BME280;9539;59.332;18.034;2023-10-09T05:38:26;101034.81;;;13.08;65.50
18821;BME280;9539;59.332;18.034;2023-10-09T05:40:51;101035.88;;;13.45;64.65
18821;BME280;9539;59.332;18.034;2023-10-09T05:43:14;101043.44;;;13.38;65.51
18821;BME280;9539;59.332;18.034;2023-10-09T05:45:57;101038.03;;;13.52;63.85
18821;BME280;9539;59.332;18.034;2023-10-09T05:48:28;101041.22;;;13.70;63.27
18821;BME280;9539;59.332;18.034;2023-10-09T05:51:07;101040.81;;;13.89;62.11
18821;BME280;9539;59.332;18.034;2023-10-09T05:53:53;101041.97;;;13.47;63.14
18821;BME280;9539;59.332;18.034;2023-10-09T05:56:32;101034.50;;;14.02;61.93
18821;BME280;9539;59.332;18.034;2023-10-09T05:59:12;101037.81;;;13.68;63.09
18821;BME280;9539;59.332;18.034;2023-10-09T06:01:52;101041.38;;;13.29;63.29
18821;BME280;9539;59.332;18.034;2023-10-09T06:04:31;101046.13;;;14.01;62.98
18821;BME280;9539;59.332;18.034;2023-10-09T06:07:09;101039.22;;;13.99;61.88
18821;BME280;9539;59.332;18.034;2023-10-09T06:09:34;101042.75;;;13.99;62.32
18821;BME280;9539;59.332;18.034;2023-10-09T06:12:10;101047.06;;;13.37;64.48
18821;BME280;9539;59.332;18.034;2023-10-09T06:14:49;101047.00;;;13.77;63.54
18821;BME280;9539;59.332;18.034;2023-10-09T06:17:40;101050.72;;;14.25;62.72
18821;BME280;9539;59.332;18.034;2023-10-09T06:20:05;101050.47;;;14.28;60.68
18821;BME280;9539;59.332;18.034;2023-10-09T06:22:48;101046.34;;;14.24;62.02
18821;BME280;9539;59.332;18.034;2023-10-09T06:25:17;101048.94;;;14.13;61.98
18821;BME280;9539;59.332;18.034;2023-10-09T06:27:39;101050.41;;;13.91;63.43
18821;BME280;9539;59.332;18.034;2023-10-09T06:30:20;101054.25;;;14.38;62.56
18821;BME280;9539;59.332;18.034;2023-10-09T06:32:48;101048.25;;;14.22;62.70
18821;BME280;9539;59.332;18.034;2023-10-09T06:35:11;101050.16;;;15.05;59.41
18821;BME280;9539;59.332;18.034;2023-10-09T06:37:42;101038.22;;;15.57;59.64
18821;BME280;9539;59.332;18.034;2023-10-09T06:40:18;101036.91;;;15.28;58.25
18821;BME280;9539;59.332;18.034;2023-10-09T06:42:57;101045.09;;;15.94;54.41
18821;BME280;9539;59.332;18.034;2023-10-09T06:45:27;101040.97;;;17.32;51.62
18821;BME280;9539;59.332;18.034;2023-10-09T06:48:05;101038.94;;;17.45;51.51
18821;BME280;9539;59.332;18.034;2023-10-09T06:50:30;101047.44;;;17.62;50.49
18821;BME280;9539;59.332;18.034;2023-10-09T06:53:16;101036.00;;;17.90;49.02
18821;BME280;9539;59.332;18.034;2023-10-09T06:55:40;101045.94;;;18.29;47.83
18821;BME280;9539;59.332;18.034;2023-10-09T06:58:10;101050.91;;;18.04;47.48
18821;BME280;9539;59.332;18.034;2023-10-09T07:00:38;101047.13;;;18.86;46.51
18821;BME280;9539;59.332;18.034;2023-10-09T07:03:19;101045.16;;;20.58;42.99
18821;BME280;9539;59.332;18.034;2023-10-09T07:05:50;101047.13;;;21.29;41.76
18821;BME280;9539;59.332;18.034;2023-10-09T07:08:25;101037.97;;;19.56;43.81
18821;BME280;9539;59.332;18.034;2023-10-09T07:10:59;101035.81;;;20.16;43.19
18821;BME280;9539;59.332;18.034;2023-10-09T07:13:41;101035.56;;;21.19;40.24
18821;BME280;9539;59.332;18.034;2023-10-09T07:16:07;101039.00;;;21.29;39.57
18821;BME280;9539;59.332;18.034;2023-10-09T07:18:50;101030.88;;;21.46;38.93
18821;BME280;9539;59.332;18.034;2023-10-09T07:21:15;101034.91;;;21.42;38.05
18821;BME280;9539;59.332;18.034;2023-10-09T07:23:48;101039.31;;;21.43;39.29
18821;BME280;9539;59.332;18.034;2023-10-09T07:26:10;101045.03;;;22.36;36.96
18821;BME280;9539;59.332;18.034;2023-10-09T07:28:44;101039.69;;;23.18;35.97
18821;BME280;9539;59.332;18.034;2023-10-09T07:31:16;101040.53;;;23.10;34.91
18821;BME280;9539;59.332;18.034;2023-10-09T07:33:44;101047.00;;;22.67;35.37
18821;BME280;9539;59.332;18.034;2023-10-09T07:36:24;101025.16;;;23.60;33.92
18821;BME280;9539;59.332;18.034;2023-10-09T07:38:59;101043.53;;;22.49;34.35
18821;BME280;9539;59.332;18.034;2023-10-09T07:41:22;101042.34;;;21.92;34.13
18821;BME280;9539;59.332;18.034;2023-10-09T07:43:58;101040.66;;;22.85;35.15
18821;BME280;9539;59.332;18.034;2023-10-09T07:46:39;101044.94;;;23.20;33.84
18821;BME280;9539;59.332;18.034;2023-10-09T07:49:33;101044.94;;;22.61;33.65
18821;BME280;9539;59.332;18.034;2023-10-09T07:51:59;101047.84;;;22.68;33.22
18821;BME280;9539;59.332;18.034;2023-10-09T07:54:21;101037.16;;;22.58;33.45
18821;BME280;9539;59.332;18.034;2023-10-09T07:56:52;101040.81;;;24.29;32.13
18821;BME280;9539;59.332;18.034;2023-10-09T07:59:24;101033.72;;;25.21;30.78
18821;BME280;9539;59.332;18.034;2023-10-09T08:01:48;101022.13;;;23.63;31.72
18821;BME280;9539;59.332;18.034;2023-10-09T08:04:14;101026.09;;;24.23;32.18
18821;BME280;9539;59.332;18.034;2023-10-09T08:06:41;101023.72;;;24.20;31.27
18821;BME280;9539;59.332;18.034;2023-10-09T08:09:05;101025.00;;;24.41;30.28
18821;BME280;9539;59.332;18.034;2023-10-09T08:11:48;101023.22;;;24.09;31.72
18821;BME280;9539;59.332;18.034;2023-10-09T08:14:34;101010.09;;;23.49;31.04
18821;BME280;9539;59.332;18.034;2023-10-09T08:17:05;101013.03;;;24.89;30.31
18821;BME280;9539;59.332;18.034;2023-10-09T08:19:35;101016.63;;;24.50;30.06
18821;BME280;9539;59.332;18.034;2023-10-09T08:22:12;101010.66;;;24.63;29.09
18821;BME280;9539;59.332;18.034;2023-10-09T08:24:56;101008.78;;;24.94;27.82
18821;BME280;9539;59.332;18.034;2023-10-09T08:27:18;101009.53;;;26.01;27.82
18821;BME280;9539;59.332;18.034;2023-10-09T08:30:07;101007.09;;;25.76;27.54
18821;BME280;9539;59.332;18.034;2023-10-09T08:32:50;101008.28;;;25.36;27.23
18821;BME280;9539;59.332;18.034;2023-10-09T08:35:21;101011.50;;;26.07;26.99
18821;BME280;9539;59.332;18.034;2023-10-09T08:37:49;101005.47;;;27.27;25.46
18821;BME280;9539;59.332;18.034;2023-10-09T08:40:12;100999.59;;;24.64;27.45
18821;BME280;9539;59.332;18.034;2023-10-09T08:42:38;101003.09;;;23.87;27.88
18821;BME280;9539;59.332;18.034;2023-10-09T08:45:03;101010.00;;;24.06;27.01
18821;BME280;9539;59.332;18.034;2023-10-09T08:47:26;101010.38;;;24.81;26.56
18821;BME280;9539;59.332;18.034;2023-10-09T08:49:48;101006.03;;;23.61;26.81
18821;BME280;9539;59.332;18.034;2023-10-09T08:52:11;101007.00;;;25.70;26.21
18821;BME280;9539;59.332;18.034;2023-10-09T08:54:34;101015.16;;;23.28;28.36
18821;BME280;9539;59.332;18.034;2023-10-09T08:56:57;101004.47;;;24.38;26.93
18821;BME280;9539;59.332;18.034;2023-10-09T08:59:20;100993.13;;;25.94;25.87
18821;BME280;9539;59.332;18.034;2023-10-09T09:01:42;100999.44;;;25.20;25.90
18821;BME280;9539;59.332;18.034;2023-10-09T09:04:04;100998.56;;;25.65;25.72
18821;BME280;9539;59.332;18.034;2023-10-09T09:06:36;100997.81;;;25.33;25.94
18821;BME280;9539;59.332;18.034;2023-10-09T09:09:09;101002.22;;;26.01;25.57
18821;BME280;9539;59.332;18.034;2023-10-09T09:11:40;101008.28;;;25.36;26.13
18821;BME280;9539;59.332;18.034;2023-10-09T09:14:10;101003.41;;;25.32;26.07
18821;BME280;9539;59.332;18.034;2023-10-09T09:16:41;101010.97;;;24.68;26.07
18821;BME280;9539;59.332;18.034;2023-10-09T09:19:08;101005.63;;;25.28;26.45
18821;BME280;9539;59.332;18.034;2023-10-09T09:21:39;101008.72;;;24.41;26.82
18821;BME280;9539;59.332;18.034;2023-10-09T09:24:04;101007.66;;;26.01;24.56
18821;BME280;9539;59.332;18.034;2023-10-09T09:26:36;101002.13;;;24.35;26.50
18821;BME280;9539;59.332;18.034;2023-10-09T09:29:05;101000.00;;;24.84;26.22
18821;BME280;9539;59.332;18.034;2023-10-09T09:31:30;101000.06;;;25.22;25.74
18821;BME280;9539;59.332;18.034;2023-10-09T09:33:58;101015.00;;;20.72;30.26
18821;BME280;9539;59.332;18.034;2023-10-09T09:36:22;100995.81;;;23.87;26.93
18821;BME280;9539;59.332;18.034;2023-10-09T09:38:46;100996.56;;;23.33;27.05
18821;BME280;9539;59.332;18.034;2023-10-09T09:41:09;100993.09;;;21.46;28.71
18821;BME280;9539;59.332;18.034;2023-10-09T09:43:31;101003.50;;;22.53;26.94
18821;BME280;9539;59.332;18.034;2023-10-09T09:45:56;100994.91;;;21.64;28.38
18821;BME280;9539;59.332;18.034;2023-10-09T09:48:19;101003.50;;;22.53;27.55
18821;BME280;9539;59.332;18.034;2023-10-09T09:50:44;101001.19;;;24.51;26.17
18821;BME280;9539;59.332;18.034;2023-10-09T09:53:07;100992.16;;;23.64;26.88
18821;BME280;9539;59.332;18.034;2023-10-09T09:55:34;101000.75;;;22.95;27.50
18821;BME280;9539;59.332;18.034;2023-10-09T09:57:57;101000.25;;;23.16;27.02
18821;BME280;9539;59.332;18.034;2023-10-09T10:00:21;100991.69;;;24.24;25.75
18821;BME280;9539;59.332;18.034;2023-10-09T10:02:51;100991.72;;;24.00;26.80
18821;BME280;9539;59.332;18.034;2023-10-09T10:05:18;100979.69;;;25.03;25.51
18821;BME280;9539;59.332;18.034;2023-10-09T10:07:40;100987.44;;;24.83;25.60
18821;BME280;9539;59.332;18.034;2023-10-09T10:10:33;100974.78;;;24.76;24.89
18821;BME280;9539;59.332;18.034;2023-10-09T10:12:57;100978.06;;;23.85;27.08
18821;BME280;9539;59.332;18.034;2023-10-09T10:15:23;100970.00;;;24.24;26.56
18821;BME280;9539;59.332;18.034;2023-10-09T10:18:07;100977.84;;;23.86;26.96
18821;BME280;9539;59.332;18.034;2023-10-09T10:20:32;100969.75;;;25.18;25.30
18821;BME280;9539;59.332;18.034;2023-10-09T10:23:17;100967.88;;;24.96;25.79
18821;BME280;9539;59.332;18.034;2023-10-09T10:25:39;100970.59;;;24.34;25.81
18821;BME280;9539;59.332;18.034;2023-10-09T10:28:19;100974.38;;;24.87;25.42
18821;BME280;9539;59.332;18.034;2023-10-09T10:30:58;100967.94;;;25.11;24.59
18821;BME280;9539;59.332;18.034;2023-10-09T10:33:21;100970.97;;;24.85;24.78
18821;BME280;9539;59.332;18.034;2023-10-09T10:35:49;100958.81;;;25.26;24.28
18821;BME280;9539;59.332;18.034;2023-10-09T10:38:29;100973.50;;;23.77;25.38
18821;BME280;9539;59.332;18.034;2023-10-09T10:40:54;100967.97;;;24.10;25.20
18821;BME280;9539;59.332;18.034;2023-10-09T10:43:21;100946.81;;;23.26;26.81
18821;BME280;9539;59.332;18.034;2023-10-09T10:46:07;100961.03;;;23.52;26.33
18821;BME280;9539;59.332;18.034;2023-10-09T10:48:35;100967.53;;;22.60;27.14
18821;BME280;9539;59.332;18.034;2023-10-09T10:51:00;100965.44;;;24.08;26.30
18821;BME280;9539;59.332;18.034;2023-10-09T10:53:23;100964.06;;;23.17;27.69
18821;BME280;9539;59.332;18.034;2023-10-09T10:55:55;100956.47;;;23.20;26.64
18821;BME280;9539;59.332;18.034;2023-10-09T10:58:17;100955.41;;;23.21;25.94
18821;BME280;9539;59.332;18.034;2023-10-09T11:00:51;100966.28;;;24.79;24.83
18821;BME280;9539;59.332;18.034;2023-10-09T11:03:31;100966.41;;;23.36;25.84
18821;BME280;9539;59.332;18.034;2023-10-09T11:06:02;100970.47;;;22.91;25.73
18821;BME280;9539;59.332;18.034;2023-10-09T11:08:35;100967.19;;;22.71;26.95
18821;BME280;9539;59.332;18.034;2023-10-09T11:11:10;100968.59;;;23.08;25.95
18821;BME280;9539;59.332;18.034;2023-10-09T11:13:35;100972.34;;;23.07;26.36
18821;BME280;9539;59.332;18.034;2023-10-09T11:16:12;100974.03;;;24.12;25.82
18821;BME280;9539;59.332;18.034;2023-10-09T11:18:39;100969.25;;;23.67;26.22
18821;BME280;9539;59.332;18.034;2023-10-09T11:21:04;100980.13;;;22.36;27.08
18821;BME280;9539;59.332;18.034;2023-10-09T11:23:40;100977.09;;;22.05;27.39
18821;BME280;9539;59.332;18.034;2023-10-09T11:26:13;100970.81;;;22.38;27.50
18821;BME280;9539;59.332;18.034;2023-10-09T11:28:41;100981.09;;;21.05;29.12
18821;BME280;9539;59.332;18.034;2023-10-09T11:31:10;100977.28;;;20.81;28.95
18821;BME280;9539;59.332;18.034;2023-10-09T11:33:42;100976.38;;;20.72;29.35
18821;BME280;9539;59.332;18.034;2023-10-09T11:36:06;100982.13;;;20.32;29.74
18821;BME280;9539;59.332;18.034;2023-10-09T11:38:35;100987.28;;;20.25;29.83
18821;BME280;9539;59.332;18.034;2023-10-09T11:41:11;100982.97;;;20.05;30.37
18821;BME280;9539;59.332;18.034;2023-10-09T11:43:49;100979.81;;;19.82;31.13
18821;BME280;9539;59.332;18.034;2023-10-09T11:46:14;100978.81;;;20.20;30.19
18821;BME280;9539;59.332;18.034;2023-10-09T11:49:03;100983.28;;;20.29;30.29
18821;BME280;9539;59.332;18.034;2023-10-09T11:51:47;100981.19;;;19.96;30.49
18821;BME280;9539;59.332;18.034;2023-10-09T11:54:30;100980.22;;;19.87;30.83
18821;BME280;9539;59.332;18.034;2023-10-09T11:56:51;100981.72;;;19.43;31.69
18821;BME280;9539;59.332;18.034;2023-10-09T11:59:15;100983.44;;;20.28;30.77
18821;BME280;9539;59.332;18.034;2023-10-09T12:01:37;100986.78;;;20.12;30.68
18821;BME280;9539;59.332;18.034;2023-10-09T12:04:03;100983.47;;;20.18;30.70
18821;BME280;9539;59.332;18.034;2023-10-09T12:06:29;100982.63;;;20.72;30.77
18821;BME280;9539;59.332;18.034;2023-10-09T12:08:54;100992.31;;;19.74;32.48
18821;BME280;9539;59.332;18.034;2023-10-09T12:11:18;100997.66;;;20.20;31.43
18821;BME280;9539;59.332;18.034;2023-10-09T12:13:49;100994.16;;;19.73;32.53
18821;BME280;9539;59.332;18.034;2023-10-09T12:16:16;100988.00;;;19.25;32.92
18821;BME280;9539;59.332;18.034;2023-10-09T12:18:38;100989.28;;;19.96;32.49
18821;BME280;9539;59.332;18.034;2023-10-09T12:21:01;100995.91;;;18.97;34.31
18821;BME280;9539;59.332;18.034;2023-10-09T12:23:24;100989.88;;;19.71;33.18
18821;BME280;9539;59.332;18.034;2023-10-09T12:25:50;100987.16;;;19.24;33.82
18821;BME280;9539;59.332;18.034;2023-10-09T12:28:12;100986.38;;;19.70;33.30
18821;BME280;9539;59.332;18.034;2023-10-09T12:30:34;100981.88;;;19.98;32.37
18821;BME280;9539;59.332;18.034;2023-10-09T12:33:00;100982.63;;;19.05;33.06
18821;BME280;9539;59.332;18.034;2023-10-09T12:35:23;100983.31;;;19.17;32.27
18821;BME280;9539;59.332;18.034;2023-10-09T12:37:45;100978.41;;;19.78;31.92
18821;BME280;9539;59.332;18.034;2023-10-09T12:40:08;100976.63;;;19.40;32.18
18821;BME280;9539;59.332;18.034;2023-10-09T12:42:32;100974.25;;;19.84;32.34
18821;BME280;9539;59.332;18.034;2023-10-09T12:44:54;100978.44;;;19.69;32.03
18821;BME280;9539;59.332;18.034;2023-10-09T12:47:18;100980.34;;;18.91;33.25
18821;BME280;9539;59.332;18.034;2023-10-09T12:49:40;100985.31;;;18.96;34.44
18821;BME280;9539;59.332;18.034;2023-10-09T12:52:02;100983.16;;;19.57;33.29
18821;BME280;9539;59.332;18.034;2023-10-09T12:54:25;100974.50;;;19.44;33.43
18821;BME280;9539;59.332;18.034;2023-10-09T12:56:49;100976.03;;;19.66;33.40
18821;BME280;9539;59.332;18.034;2023-10-09T12:59:12;100968.13;;;19.54;33.41